Terminal Aerodrome Forecast
Issued by NWS

Home | Current Version | Previous Version | Text Only | Print | Product List | Glossary Off
Versions: 1 2 3 4 5 6 7 8 9 10 11 12 13 14 15 16 17 18 19 20 21 22 23 24 25 26 27 28 29 30 31

786
FTUS43 KDVN 282320
TAFBRL
TAF
KBRL 282320Z 2900/2924 08007KT P6SM FEW018 BKN023 OVC035
      TEMPO 2900/2904 FEW025 OVC035
     FM291600 08013KT 2SM -RA BR OVC015=

USA.gov is the U.S. government's official web portal to all federal, state and local government web resources and services.